createdAt,value
2022-08-22T00:00:13.428Z,9.18
2022-08-22T00:02:59.228Z,12.25
2022-08-22T00:03:12.288Z,13.90
2022-08-22T00:03:17.341Z,13.50
2022-08-22T00:05:53.456Z,15.05
2022-08-22T00:08:29.110Z,15.30
2022-08-22T00:11:04.265Z,10.15
2022-08-22T00:13:40.387Z,16.35
2022-08-22T00:16:17.704Z,10.02
2022-08-22T00:18:50.689Z,11.40
2022-08-22T00:21:23.150Z,12.05
2022-08-22T00:23:55.819Z,10.73
2022-08-22T00:26:35.238Z,10.50
2022-08-22T00:29:08.916Z,8.52
2022-08-22T00:31:41.202Z,11.35
2022-08-22T00:34:15.437Z,11.15
2022-08-22T00:36:48.190Z,8.93
2022-08-22T00:39:20.838Z,8.70
2022-08-22T00:42:31.489Z,10.73
2022-08-22T00:45:40.792Z,10.02
2022-08-22T00:48:31.814Z,9.10
2022-08-22T00:51:53.260Z,14.35
2022-08-22T00:54:37.663Z,10.13
2022-08-22T00:57:40.495Z,11.55
2022-08-22T01:00:20.827Z,11.23
2022-08-22T01:03:28.991Z,9.85
2022-08-22T01:06:09.627Z,10.82
2022-08-22T01:08:55.643Z,10.05
2022-08-22T01:11:36.942Z,10.88
2022-08-22T01:14:35.054Z,14.05
2022-08-22T01:17:35.167Z,11.43
2022-08-22T01:20:49.427Z,10.82
2022-08-22T01:23:58.702Z,11.85
2022-08-22T01:27:11.904Z,9.95
2022-08-22T01:30:13.154Z,12.05
2022-08-22T01:33:16.598Z,11.02
2022-08-22T01:36:05.138Z,15.30
2022-08-22T01:38:55.395Z,12.93
2022-08-22T01:42:02.020Z,9.52
2022-08-22T01:44:55.629Z,10.30
2022-08-22T01:47:28.131Z,12.98
2022-08-22T01:50:14.140Z,11.63
2022-08-22T01:52:50.262Z,11.30
2022-08-22T01:55:30.771Z,11.35
2022-08-22T01:58:03.763Z,13.18
2022-08-22T02:00:52.626Z,12.57
2022-08-22T02:03:27.051Z,14.32
2022-08-22T02:06:03.974Z,10.07
2022-08-22T02:08:42.415Z,12.70
2022-08-22T02:11:13.208Z,15.65
2022-08-22T02:13:54.255Z,15.10
2022-08-22T02:16:34.078Z,13.02
2022-08-22T02:19:19.685Z,13.77
2022-08-22T02:21:54.091Z,12.45
2022-08-22T02:24:46.144Z,12.45
2022-08-22T02:27:36.314Z,12.45
2022-08-22T02:30:09.264Z,16.25
2022-08-22T02:32:52.852Z,12.73
2022-08-22T02:35:28.601Z,13.05
2022-08-22T02:38:07.321Z,13.00
2022-08-22T02:40:43.116Z,15.00
2022-08-22T02:43:20.771Z,12.98
2022-08-22T02:45:57.160Z,13.70
2022-08-22T02:48:45.760Z,12.60
2022-08-22T02:51:20.276Z,16.13
2022-08-22T02:53:56.548Z,12.00
2022-08-22T02:56:34.827Z,16.90
2022-08-22T02:59:16.582Z,12.18
2022-08-22T03:01:47.321Z,14.23
2022-08-22T03:04:46.859Z,11.95
2022-08-22T03:07:26.721Z,15.30
2022-08-22T03:10:02.887Z,11.85
2022-08-22T03:12:41.256Z,14.60
2022-08-22T03:15:27.561Z,14.63
2022-08-22T03:18:01.682Z,17.45
2022-08-22T03:20:52.164Z,14.13
2022-08-22T03:23:37.610Z,15.27
2022-08-22T03:26:14.368Z,11.32
2022-08-22T03:28:52.677Z,18.33
2022-08-22T03:31:29.109Z,18.17
2022-08-22T03:34:22.746Z,19.88
2022-08-22T03:37:05.565Z,15.93
2022-08-22T03:39:50.471Z,21.35
2022-08-22T03:42:37.660Z,61.05
2022-08-22T03:45:38.586Z,23.45
2022-08-22T03:48:40.080Z,16.40
2022-08-22T03:51:32.509Z,21.98
2022-08-22T03:54:30.373Z,24.63
2022-08-22T03:57:50.304Z,22.08
2022-08-22T04:01:01.607Z,16.15
2022-08-22T04:04:02.394Z,16.38
2022-08-22T04:07:02.034Z,20.17
2022-08-22T04:10:11.636Z,15.05
2022-08-22T04:13:14.041Z,15.13
2022-08-22T04:16:13.945Z,20.13
2022-08-22T04:19:11.412Z,27.33
2022-08-22T04:21:54.162Z,34.10
2022-08-22T04:24:53.238Z,20.42
2022-08-22T04:27:28.352Z,29.90
2022-08-22T04:30:03.388Z,34.90
2022-08-22T04:32:39.296Z,33.60
2022-08-22T04:35:12.424Z,35.88
2022-08-22T04:37:48.258Z,24.65
2022-08-22T04:40:25.653Z,27.92
2022-08-22T04:42:58.444Z,23.63
2022-08-22T04:45:34.369Z,26.40
2022-08-22T04:48:09.940Z,25.80
2022-08-22T04:50:44.686Z,15.82
2022-08-22T04:53:30.233Z,20.30
2022-08-22T04:56:08.202Z,23.92
2022-08-22T04:58:57.656Z,18.58
2022-08-22T05:01:38.540Z,16.50
2022-08-22T05:04:12.786Z,18.70
2022-08-22T05:06:46.812Z,19.85
2022-08-22T05:09:21.208Z,17.42
2022-08-22T05:11:53.206Z,16.10
2022-08-22T05:14:29.408Z,15.32
2022-08-22T05:17:01.346Z,17.25
2022-08-22T05:19:34.975Z,19.17
2022-08-22T05:22:05.103Z,15.88
2022-08-22T05:24:38.873Z,15.77
2022-08-22T05:27:13.644Z,15.38
2022-08-22T05:29:47.306Z,19.92
2022-08-22T05:32:23.105Z,14.52
2022-08-22T05:34:55.679Z,17.27
2022-08-22T05:37:27.664Z,25.25
2022-08-22T05:40:01.199Z,26.55
2022-08-22T05:42:33.306Z,13.10
2022-08-22T05:45:03.254Z,14.90
2022-08-22T05:47:38.113Z,10.45
2022-08-22T05:50:15.585Z,11.82
2022-08-22T05:52:59.225Z,17.13
2022-08-22T05:55:32.602Z,15.38
2022-08-22T05:58:31.380Z,13.52
2022-08-22T06:01:08.373Z,11.77
2022-08-22T06:03:41.116Z,12.35
2022-08-22T06:06:16.142Z,12.50
2022-08-22T06:08:50.505Z,10.38
2022-08-22T06:11:33.784Z,13.23
2022-08-22T06:14:13.885Z,11.68
2022-08-22T06:16:49.040Z,11.93
2022-08-22T06:19:20.604Z,9.80
2022-08-22T06:21:55.807Z,8.85
2022-08-22T06:24:28.626Z,11.27
2022-08-22T06:27:06.875Z,10.25
2022-08-22T06:29:39.555Z,11.23
2022-08-22T06:32:15.306Z,10.68
2022-08-22T06:34:46.912Z,11.60
2022-08-22T06:37:25.780Z,15.00
2022-08-22T06:39:56.691Z,11.20
2022-08-22T06:42:28.310Z,13.73
2022-08-22T06:45:02.215Z,8.73
2022-08-22T06:47:34.283Z,11.90
2022-08-22T06:50:13.954Z,11.30
2022-08-22T06:52:57.908Z,9.60
2022-08-22T06:55:28.849Z,14.75
2022-08-22T06:58:04.215Z,9.93
2022-08-22T07:00:35.208Z,9.55
2022-08-22T07:03:12.045Z,10.23
2022-08-22T07:05:43.597Z,13.27
2022-08-22T07:08:22.594Z,9.55
2022-08-22T07:10:59.257Z,10.88
2022-08-22T07:13:29.288Z,11.05
2022-08-22T07:16:00.137Z,12.20
2022-08-22T07:18:31.973Z,13.77
2022-08-22T07:21:04.380Z,12.60
2022-08-22T07:23:40.577Z,12.32
2022-08-22T07:26:26.120Z,14.00
2022-08-22T07:29:00.809Z,10.73
2022-08-22T07:31:39.520Z,10.60
2022-08-22T07:34:33.637Z,9.05
2022-08-22T07:37:07.499Z,12.20
2022-08-22T07:39:45.881Z,16.10
2022-08-22T07:42:17.913Z,14.88
2022-08-22T07:45:03.540Z,15.35
2022-08-22T07:47:49.631Z,15.20
2022-08-22T07:50:25.126Z,10.85
2022-08-22T07:52:55.082Z,12.45
2022-08-22T07:55:27.091Z,10.35
2022-08-22T07:57:59.517Z,11.85
2022-08-22T08:00:29.038Z,11.95
2022-08-22T08:03:03.695Z,13.63
2022-08-22T08:05:36.059Z,12.88
2022-08-22T08:08:13.860Z,15.73
2022-08-22T08:10:46.221Z,14.73
2022-08-22T08:13:21.587Z,11.80
2022-08-22T08:15:52.036Z,10.77
2022-08-22T08:18:23.641Z,11.07
2022-08-22T08:20:54.575Z,11.40
2022-08-22T08:23:25.807Z,11.38
2022-08-22T08:26:01.207Z,10.07
2022-08-22T08:28:35.188Z,9.43
2022-08-22T08:31:17.134Z,9.65
2022-08-22T08:33:48.785Z,14.85
2022-08-22T08:36:48.862Z,12.85
2022-08-22T08:39:32.494Z,14.93
2022-08-22T08:46:41.127Z,13.85
2022-08-22T08:49:39.626Z,32.28
2022-08-22T08:52:58.546Z,16.17
2022-08-22T08:55:39.857Z,14.98
2022-08-22T08:58:32.165Z,36.42
2022-08-22T09:01:19.554Z,15.63
2022-08-22T09:04:26.793Z,15.75
2022-08-22T09:07:16.240Z,26.23
2022-08-22T09:10:09.738Z,17.27
2022-08-22T09:13:12.362Z,16.13
2022-08-22T09:16:10.033Z,22.95
2022-08-22T09:19:11.464Z,25.90
2022-08-22T09:22:04.175Z,21.25
2022-08-22T09:25:06.516Z,16.05
2022-08-22T09:27:40.150Z,18.75
2022-08-22T09:30:12.801Z,17.85
2022-08-22T09:32:54.832Z,18.05
2022-08-22T09:35:32.174Z,17.27
2022-08-22T09:38:23.966Z,20.20
2022-08-22T09:41:02.294Z,16.60
2022-08-22T09:43:44.157Z,18.90
2022-08-22T09:46:31.572Z,21.20
2022-08-22T09:49:13.953Z,35.92
2022-08-22T09:51:54.846Z,35.60
2022-08-22T09:54:35.163Z,19.77
2022-08-22T09:57:22.502Z,31.52
2022-08-22T10:00:17.469Z,51.42
2022-08-22T10:03:03.786Z,31.00
2022-08-22T10:05:43.944Z,49.00
2022-08-22T10:08:26.278Z,30.25
2022-08-22T10:11:26.039Z,21.88
2022-08-22T10:14:01.675Z,25.98
2022-08-22T10:17:01.814Z,25.00
2022-08-22T10:19:38.117Z,28.60
2022-08-22T10:22:44.471Z,24.17
2022-08-22T10:25:28.494Z,23.58
2022-08-22T10:28:12.063Z,26.75
2022-08-22T10:30:55.512Z,28.90
2022-08-22T10:33:31.208Z,26.35
2022-08-22T10:36:05.419Z,25.35
2022-08-22T10:38:46.232Z,25.75
2022-08-22T10:41:27.167Z,22.55
2022-08-22T10:44:07.749Z,23.52
2022-08-22T10:46:47.689Z,23.52
2022-08-22T10:49:28.284Z,22.55
2022-08-22T10:52:13.669Z,23.33
2022-08-22T10:54:53.957Z,26.88
2022-08-22T10:57:52.858Z,24.58
2022-08-22T11:00:46.187Z,24.85
2022-08-22T11:03:23.346Z,26.90
2022-08-22T11:05:55.991Z,24.70
2022-08-22T11:08:56.926Z,22.70
2022-08-22T11:11:47.461Z,23.77
2022-08-22T11:14:41.854Z,22.35
2022-08-22T11:17:29.899Z,20.80
2022-08-22T11:20:27.663Z,22.65
2022-08-22T11:23:17.504Z,22.75
2022-08-22T11:25:55.261Z,25.10
2022-08-22T11:28:54.386Z,17.67
2022-08-22T11:31:31.614Z,18.75
2022-08-22T11:34:08.144Z,21.50
2022-08-22T11:36:46.355Z,21.20
2022-08-22T11:39:24.907Z,19.02
2022-08-22T11:42:00.735Z,21.95
2022-08-22T11:44:50.915Z,19.65
2022-08-22T11:47:26.876Z,26.40
2022-08-22T11:50:01.714Z,23.38
2022-08-22T11:52:54.789Z,22.30
2022-08-22T11:55:34.350Z,22.38
2022-08-22T11:58:21.221Z,19.80
2022-08-22T12:01:03.742Z,24.17
2022-08-22T12:03:55.690Z,18.20
2022-08-22T12:06:59.513Z,20.75
2022-08-22T12:09:42.307Z,17.02
2022-08-22T12:12:26.992Z,15.80
2022-08-22T12:15:01.148Z,17.00
2022-08-22T12:18:02.076Z,18.77
2022-08-22T12:20:53.145Z,18.23
2022-08-22T12:23:48.749Z,18.08
2022-08-22T12:26:27.560Z,20.38
2022-08-22T12:29:16.866Z,15.20
2022-08-22T12:32:32.287Z,14.60
2022-08-22T12:35:19.604Z,15.02
2022-08-22T12:38:29.248Z,14.82
2022-08-22T12:41:27.720Z,16.45
2022-08-22T12:44:03.786Z,16.98
2022-08-22T12:46:47.183Z,16.48
2022-08-22T12:49:38.679Z,18.45
2022-08-22T12:52:26.256Z,14.60
2022-08-22T12:55:13.056Z,14.07
2022-08-22T12:57:54.452Z,14.18
2022-08-22T13:00:32.209Z,14.07
2022-08-22T13:03:03.850Z,12.70
2022-08-22T13:05:40.936Z,13.90
2022-08-22T13:08:17.527Z,12.35
2022-08-22T13:10:48.776Z,12.73
2022-08-22T13:13:36.928Z,15.95
2022-08-22T13:16:09.160Z,15.77
2022-08-22T13:18:53.536Z,12.75
2022-08-22T13:21:31.587Z,12.70
2022-08-22T13:24:16.773Z,14.40
2022-08-22T13:26:49.744Z,12.23
2022-08-22T13:29:26.473Z,11.70
2022-08-22T13:32:00.450Z,14.20
2022-08-22T13:34:43.528Z,14.07
2022-08-22T13:37:17.379Z,14.45
2022-08-22T13:39:52.845Z,12.73
2022-08-22T13:42:30.129Z,15.50
2022-08-22T13:45:05.597Z,14.15
2022-08-22T13:47:39.597Z,15.75
2022-08-22T13:50:14.947Z,13.38
2022-08-22T13:52:52.173Z,13.27
2022-08-22T13:55:31.253Z,13.07
2022-08-22T13:58:06.724Z,13.18
2022-08-22T14:01:07.206Z,12.63
2022-08-22T14:03:45.677Z,11.85
2022-08-22T14:06:36.873Z,17.10
2022-08-22T14:09:31.218Z,16.02
2022-08-22T14:12:11.971Z,13.07
2022-08-22T14:14:43.261Z,14.55
2022-08-22T14:17:18.178Z,15.20
2022-08-22T14:19:59.490Z,13.32
2022-08-22T14:22:35.798Z,13.90
2022-08-22T14:25:09.228Z,14.13
2022-08-22T14:27:45.600Z,17.73
2022-08-22T14:30:18.786Z,18.58
2022-08-22T14:32:52.117Z,13.82
2022-08-22T14:35:34.666Z,13.25
2022-08-22T14:38:21.523Z,16.85
2022-08-22T14:40:58.921Z,17.70
2022-08-22T14:43:52.916Z,17.02
2022-08-22T14:46:26.877Z,19.38
2022-08-22T14:49:28.673Z,19.75
2022-08-22T14:52:06.690Z,17.83
2022-08-22T14:54:38.038Z,17.73
2022-08-22T14:57:19.789Z,17.05
2022-08-22T14:59:53.268Z,16.38
2022-08-22T15:02:29.225Z,20.35
2022-08-22T15:05:01.688Z,19.85
2022-08-22T15:07:33.854Z,21.13
2022-08-22T15:10:06.211Z,20.73
2022-08-22T15:12:37.701Z,20.55
2022-08-22T15:15:13.960Z,17.02
2022-08-22T15:17:45.276Z,20.85
2022-08-22T15:20:27.660Z,18.77
2022-08-22T15:22:59.831Z,26.50
2022-08-22T15:25:32.392Z,19.65
2022-08-22T15:28:06.845Z,19.70
2022-08-22T15:30:48.564Z,22.23
2022-08-22T15:33:26.974Z,24.58
2022-08-22T15:36:15.953Z,22.85
2022-08-22T15:38:48.124Z,21.42
2022-08-22T15:41:41.021Z,21.00
2022-08-22T15:44:18.292Z,25.58
2022-08-22T15:47:24.144Z,24.80
2022-08-22T15:49:59.029Z,22.42
2022-08-22T15:52:31.990Z,21.83
2022-08-22T15:55:25.349Z,22.90
2022-08-22T15:58:04.995Z,21.50
2022-08-22T16:00:43.870Z,20.42
2022-08-22T16:03:25.924Z,21.15
2022-08-22T16:05:58.435Z,18.83
2022-08-22T16:08:33.077Z,20.83
2022-08-22T16:11:23.536Z,19.92
2022-08-22T16:14:21.423Z,22.40
2022-08-22T16:17:03.399Z,23.40
2022-08-22T16:19:34.837Z,21.92
2022-08-22T16:22:10.479Z,22.85
2022-08-22T16:25:02.446Z,20.98
2022-08-22T16:27:31.286Z,21.27
2022-08-22T16:30:15.848Z,25.42
2022-08-22T16:32:56.452Z,24.83
2022-08-22T16:36:02.253Z,26.10
2022-08-22T16:38:42.139Z,23.65
2022-08-22T16:41:28.703Z,23.55
2022-08-22T16:44:30.192Z,23.55
2022-08-22T16:47:11.726Z,22.10
2022-08-22T16:49:56.162Z,22.48
2022-08-22T16:52:55.624Z,23.38
2022-08-22T16:55:47.939Z,25.70
2022-08-22T16:58:57.524Z,26.02
2022-08-22T17:02:01.727Z,21.55
2022-08-22T17:04:41.575Z,21.92
2022-08-22T17:07:22.811Z,27.40
2022-08-22T17:10:12.981Z,23.02
2022-08-22T17:12:58.735Z,26.17
2022-08-22T17:15:35.698Z,24.80
2022-08-22T17:18:27.964Z,26.02
2022-08-22T17:21:07.104Z,24.05
2022-08-22T17:23:42.060Z,25.40
2022-08-22T17:26:21.222Z,30.38
2022-08-22T17:29:06.377Z,30.48
2022-08-22T17:31:44.066Z,24.67
2022-08-22T17:34:26.220Z,29.10
2022-08-22T17:37:10.278Z,26.70
2022-08-22T17:40:09.494Z,31.15
2022-08-22T17:43:15.291Z,27.95
2022-08-22T17:46:04.303Z,24.65
2022-08-22T17:48:43.691Z,25.58
2022-08-22T17:51:28.341Z,22.98
2022-08-22T17:54:03.428Z,30.77
2022-08-22T17:56:40.559Z,31.15
2022-08-22T17:59:22.421Z,31.90
2022-08-22T18:02:00.487Z,27.70
2022-08-22T18:04:35.840Z,28.05
2022-08-22T18:07:29.678Z,28.08
2022-08-22T18:10:03.190Z,34.47
2022-08-22T18:12:36.756Z,30.45
2022-08-22T18:15:10.330Z,31.25
2022-08-22T18:17:48.780Z,33.35
2022-08-22T18:20:25.209Z,31.27
2022-08-22T18:22:58.889Z,32.80
2022-08-22T18:25:42.834Z,31.52
2022-08-22T18:28:23.499Z,37.08
2022-08-22T18:30:59.601Z,32.22
2022-08-22T18:33:35.207Z,33.53
2022-08-22T18:36:11.333Z,35.58
2022-08-22T18:38:53.660Z,38.10
2022-08-22T18:41:31.492Z,32.38
2022-08-22T18:44:01.608Z,38.83
2022-08-22T18:46:52.145Z,33.67
2022-08-22T18:49:45.791Z,33.70
2022-08-22T18:52:19.573Z,30.02
2022-08-22T18:55:22.998Z,32.67
2022-08-22T18:58:10.039Z,33.90
2022-08-22T19:01:03.315Z,36.53
2022-08-22T19:03:49.500Z,36.38
2022-08-22T19:06:46.248Z,33.75
2022-08-22T19:09:40.821Z,31.35
2022-08-22T19:12:27.168Z,32.63
2022-08-22T19:15:33.968Z,33.22
2022-08-22T19:18:37.686Z,33.72
2022-08-22T19:21:38.170Z,31.05
2022-08-22T19:24:12.154Z,29.13
2022-08-22T19:26:47.937Z,27.70
2022-08-22T19:29:56.604Z,29.20
2022-08-22T19:32:59.444Z,33.30
2022-08-22T19:35:41.396Z,32.40
2022-08-22T19:38:12.203Z,31.38
2022-08-22T19:40:58.631Z,30.63
2022-08-22T19:43:34.572Z,32.33
2022-08-22T19:46:15.198Z,32.72
2022-08-22T19:48:47.750Z,29.13
2022-08-22T19:51:27.373Z,28.50
2022-08-22T19:54:20.446Z,28.02
2022-08-22T19:57:07.020Z,30.85
2022-08-22T19:59:51.056Z,31.80
2022-08-22T20:02:32.259Z,31.95
2022-08-22T20:05:22.374Z,30.98
2022-08-22T20:08:03.091Z,32.47
2022-08-22T20:10:43.344Z,31.60
2022-08-22T20:13:23.187Z,32.15
2022-08-22T20:16:17.248Z,32.47
2022-08-22T20:19:14.618Z,31.55
2022-08-22T20:21:50.053Z,30.83
2022-08-22T20:24:24.817Z,30.30
2022-08-22T20:27:13.200Z,32.60
2022-08-22T20:29:49.325Z,28.25
2022-08-22T20:32:21.602Z,31.88
2022-08-22T20:34:55.670Z,32.10
2022-08-22T20:37:44.973Z,31.77
2022-08-22T20:40:55.235Z,29.15
2022-08-22T20:43:18.377Z,37.20
2022-08-22T20:46:06.853Z,32.65
2022-08-22T20:48:41.294Z,31.50
2022-08-22T20:51:14.185Z,30.23
2022-08-22T20:53:42.828Z,37.13
2022-08-22T20:56:12.081Z,32.33
2022-08-22T20:58:47.150Z,28.75
2022-08-22T21:01:18.936Z,33.25
2022-08-22T21:03:50.558Z,34.42
2022-08-22T21:06:22.692Z,33.33
2022-08-22T21:09:14.344Z,28.60
2022-08-22T21:12:08.731Z,33.20
2022-08-22T21:14:44.627Z,31.23
2022-08-22T21:17:27.259Z,30.13
2022-08-22T21:19:57.866Z,31.08
2022-08-22T21:22:31.845Z,27.95
2022-08-22T21:25:01.802Z,27.65
2022-08-22T21:27:33.215Z,29.65
2022-08-22T21:30:03.987Z,29.42
2022-08-22T21:32:55.038Z,33.80
2022-08-22T21:35:30.537Z,29.38
2022-08-22T21:38:00.824Z,26.33
2022-08-22T21:40:33.690Z,29.67
2022-08-22T21:43:09.044Z,25.15
2022-08-22T21:45:44.155Z,24.23
2022-08-22T21:48:43.812Z,28.95
2022-08-22T21:51:30.013Z,29.48
2022-08-22T21:54:28.247Z,27.98
2022-08-22T21:56:58.094Z,28.63
2022-08-22T21:59:51.717Z,30.17
2022-08-22T22:02:31.316Z,37.28
2022-08-22T22:05:08.399Z,33.60
2022-08-22T22:07:38.584Z,32.47
2022-08-22T22:10:09.655Z,30.42
2022-08-22T22:12:41.067Z,33.75
2022-08-22T22:15:10.819Z,35.30
2022-08-22T22:17:39.396Z,29.00
2022-08-22T22:20:09.875Z,36.10
2022-08-22T22:22:46.057Z,34.13
2022-08-22T22:25:40.569Z,38.88
2022-08-22T22:28:07.640Z,36.75
2022-08-22T22:30:36.450Z,31.77
2022-08-22T22:33:04.755Z,36.30
2022-08-22T22:35:34.626Z,35.53
2022-08-22T22:38:02.887Z,38.03
2022-08-22T22:40:31.182Z,37.45
2022-08-22T22:42:59.377Z,33.53
2022-08-22T22:45:27.719Z,35.25
2022-08-22T22:47:55.958Z,33.38
2022-08-22T22:50:24.293Z,38.05
2022-08-22T22:52:54.301Z,32.17
2022-08-22T22:55:24.092Z,39.28
2022-08-22T22:57:58.675Z,36.97
2022-08-22T23:00:30.551Z,36.85
2022-08-22T23:03:00.353Z,35.10
2022-08-22T23:05:29.286Z,37.03
2022-08-22T23:07:59.571Z,37.67
2022-08-22T23:10:30.063Z,35.58
2022-08-22T23:12:58.593Z,35.88
2022-08-22T23:15:27.509Z,37.10
2022-08-22T23:17:55.790Z,35.90
2022-08-22T23:20:24.591Z,38.03
2022-08-22T23:22:52.704Z,39.50
2022-08-22T23:25:22.430Z,34.58
2022-08-22T23:27:52.478Z,34.28
2022-08-22T23:30:21.139Z,36.72
2022-08-22T23:32:49.294Z,36.78
2022-08-22T23:35:17.557Z,33.25
2022-08-22T23:37:45.632Z,31.90
2022-08-22T23:40:13.974Z,32.67
2022-08-22T23:42:43.631Z,30.58
2022-08-22T23:45:12.105Z,29.48
2022-08-22T23:47:40.386Z,30.65
2022-08-22T23:50:08.833Z,23.58
2022-08-22T23:52:36.925Z,24.00
2022-08-22T23:55:05.911Z,24.52
2022-08-22T23:57:34.379Z,24.42
